Time;durP1;ratioP1;P1;durP2;ratioP2;P2;SDS_P1;SDS_P2;PMS_P1;PMS_P2;Temp;Humidity;BMP_temperature;BMP_pressure;BME280_temperature;BME280_humidity;BME280_pressure;Samples;Min_cycle;Max_cycle;Signal;HPM_P1;HPM_P2
2022/10/10 00:01:30;;;;;;;26.20;10.90;;;4.50;99.90;;;;;;5052600;28;20206;-85
2022/10/10 00:03:57;;;;;;;28.73;12.77;;;4.50;99.90;;;;;;5052250;28;20270;-85
2022/10/10 00:06:23;;;;;;;37.93;11.50;;;4.40;99.90;;;;;;5052485;28;20195;-85
2022/10/10 00:08:49;;;;;;;22.50;10.07;;;4.40;99.90;;;;;;5053723;28;20217;-85
2022/10/10 00:11:16;;;;;;;22.97;11.23;;;4.30;99.90;;;;;;5053772;28;20184;-84
2022/10/10 00:13:42;;;;;;;30.83;14.90;;;4.30;99.90;;;;;;5035454;28;20184;-85
2022/10/10 00:16:09;;;;;;;23.90;13.87;;;4.30;99.90;;;;;;5053416;28;20221;-84
2022/10/10 00:18:35;;;;;;;18.00;8.33;;;4.30;99.90;;;;;;5052539;28;20713;-85
2022/10/10 00:21:01;;;;;;;12.33;7.83;;;4.20;99.90;;;;;;5053249;28;20311;-85
2022/10/10 00:23:26;;;;;;;13.57;7.83;;;4.10;99.90;;;;;;5036017;28;20634;-85
2022/10/10 00:25:53;;;;;;;15.40;8.43;;;4.10;99.90;;;;;;5053496;28;20176;-85
2022/10/10 00:28:18;;;;;;;18.67;9.40;;;4.10;99.90;;;;;;5052096;28;20641;-85
2022/10/10 00:30:44;;;;;;;13.87;6.97;;;4.10;99.90;;;;;;5053292;28;20196;-86
2022/10/10 00:33:10;;;;;;;13.80;6.57;;;4.10;99.90;;;;;;5051530;28;20322;-84
2022/10/10 00:35:36;;;;;;;11.30;6.47;;;4.00;99.90;;;;;;5051744;28;20866;-84
2022/10/10 00:38:02;;;;;;;16.17;5.23;;;4.00;99.90;;;;;;5035149;28;20642;-84
2022/10/10 00:40:28;;;;;;;14.80;6.53;;;4.00;99.90;;;;;;5052233;28;20210;-84
2022/10/10 00:42:54;;;;;;;16.20;8.03;;;3.90;99.90;;;;;;5052028;28;20179;-84
2022/10/10 00:45:36;;;;;;;11.97;7.10;;;3.90;99.90;;;;;;5045018;28;20232;-84
2022/10/10 00:48:04;;;;;;;19.80;8.90;;;3.90;99.90;;;;;;5032833;28;20209;-84
2022/10/10 00:50:31;;;;;;;17.73;8.23;;;3.90;99.90;;;;;;5033088;28;20278;-84
2022/10/10 00:52:58;;;;;;;14.90;8.10;;;4.00;99.90;;;;;;5032968;28;20179;-84
2022/10/10 00:55:24;;;;;;;16.77;7.90;;;4.00;99.90;;;;;;5033344;28;20180;-85
2022/10/10 00:57:50;;;;;;;14.23;7.83;;;4.00;99.90;;;;;;5031667;28;20198;-85
2022/10/10 01:00:16;;;;;;;19.43;6.53;;;4.00;99.90;;;;;;5032968;28;20649;-85
2022/10/10 01:02:42;;;;;;;15.33;7.23;;;4.00;99.90;;;;;;5032088;28;20210;-85
2022/10/10 01:05:09;;;;;;;26.90;8.67;;;4.00;99.90;;;;;;5032548;28;20656;-84
2022/10/10 01:07:35;;;;;;;19.13;7.07;;;4.00;99.90;;;;;;5032903;28;20583;-84
2022/10/10 01:10:07;;;;;;;13.23;6.83;;;4.00;99.90;;;;;;5032780;28;20203;-84
2022/10/10 01:12:50;;;;;;;26.97;7.57;;;4.00;99.90;;;;;;5031421;28;20180;-84
2022/10/10 01:15:34;;;;;;;20.23;8.60;;;3.90;99.90;;;;;;5032817;28;20176;-84
2022/10/10 01:18:35;;;;;;;12.50;7.37;;;3.80;99.90;;;;;;5031648;28;20282;-84
2022/10/10 01:21:16;;;;;;;21.07;7.40;;;3.80;99.90;;;;;;5018592;28;20185;-84
2022/10/10 01:24:18;;;;;;;13.90;9.10;;;3.70;99.90;;;;;;5031458;28;20662;-84
2022/10/10 01:27:15;;;;;;;14.63;6.73;;;3.70;99.90;;;;;;5034032;28;20561;-85
2022/10/10 01:29:40;;;;;;;20.03;8.83;;;3.60;99.90;;;;;;5036967;28;20180;-85
2022/10/10 01:32:21;;;;;;;28.53;11.37;;;3.70;99.90;;;;;;5036724;28;20182;-84
2022/10/10 01:35:02;;;;;;;17.67;9.77;;;3.60;99.90;;;;;;5036875;28;20180;-84
2022/10/10 01:37:46;;;;;;;9.07;6.77;;;3.50;99.90;;;;;;5035596;28;20187;-84
2022/10/10 01:40:26;;;;;;;9.67;6.20;;;3.50;99.90;;;;;;5034974;28;20179;-85
2022/10/10 01:42:58;;;;;;;13.43;6.60;;;3.50;99.90;;;;;;5036706;28;20161;-86
2022/10/10 01:45:25;;;;;;;7.83;5.33;;;3.50;99.90;;;;;;5042268;28;20683;-84
2022/10/10 01:47:54;;;;;;;15.17;7.20;;;3.50;99.90;;;;;;5056019;28;20254;-88
2022/10/10 01:50:23;;;;;;;15.13;7.17;;;3.50;99.90;;;;;;5056805;28;20186;-84
2022/10/10 01:52:55;;;;;;;13.00;6.57;;;3.50;99.90;;;;;;5055007;28;20234;-84
2022/10/10 01:55:40;;;;;;;18.40;8.57;;;3.50;99.90;;;;;;5055158;28;20230;-84
2022/10/10 01:58:09;;;;;;;10.03;6.97;;;3.50;99.90;;;;;;5055899;28;20233;-85
2022/10/10 02:00:55;;;;;;;10.47;6.07;;;3.50;99.90;;;;;;5056247;28;20172;-84
2022/10/10 02:03:31;;;;;;;12.23;5.60;;;3.50;99.90;;;;;;5056052;28;20202;-84
2022/10/10 02:06:14;;;;;;;15.63;5.67;;;3.30;99.90;;;;;;5056508;28;20171;-84
2022/10/10 02:08:44;;;;;;;6.93;3.97;;;3.40;99.90;;;;;;5055937;28;20203;-84
2022/10/10 02:11:11;;;;;;;6.77;4.50;;;3.50;99.90;;;;;;5054464;28;20206;-84
2022/10/10 02:13:53;;;;;;;7.83;3.83;;;3.20;99.90;;;;;;5054579;28;20242;-84
2022/10/10 02:16:26;;;;;;;6.13;3.83;;;3.30;99.90;;;;;;5055858;28;20190;-84
2022/10/10 02:18:54;;;;;;;10.77;5.07;;;3.30;99.90;;;;;;5054715;28;20196;-84
2022/10/10 02:21:21;;;;;;;7.90;5.17;;;3.30;99.90;;;;;;5054434;28;20199;-84
2022/10/10 02:23:51;;;;;;;9.80;6.30;;;3.40;99.90;;;;;;5054209;28;20245;-84
2022/10/10 02:26:19;;;;;;;9.70;6.53;;;3.30;99.90;;;;;;5055623;28;20664;-84
2022/10/10 02:29:23;;;;;;;12.73;6.87;;;3.40;99.90;;;;;;5055769;28;20203;-84
2022/10/10 02:32:19;;;;;;;8.23;6.23;;;3.50;99.90;;;;;;5054732;28;20182;-84
2022/10/10 02:34:50;;;;;;;10.83;5.83;;;3.50;99.90;;;;;;5046178;28;20198;-84
2022/10/10 02:37:17;;;;;;;8.90;5.53;;;3.50;99.90;;;;;;5055672;28;20262;-84
2022/10/10 02:39:47;;;;;;;13.30;5.73;;;3.50;99.90;;;;;;5055706;28;20284;-84
2022/10/10 02:42:15;;;;;;;11.50;5.30;;;3.50;99.90;;;;;;5055114;28;20254;-84
2022/10/10 02:44:41;;;;;;;10.50;5.33;;;3.50;99.90;;;;;;5056572;28;20179;-85
2022/10/10 02:47:07;;;;;;;8.20;5.97;;;3.40;99.90;;;;;;5056824;28;20243;-86
2022/10/10 02:49:34;;;;;;;13.07;6.73;;;3.40;99.90;;;;;;5075198;28;20221;-85
2022/10/10 02:52:00;;;;;;;11.33;5.53;;;;;;;;;;5040477;28;20713;-87
2022/10/10 02:54:26;;;;;;;6.77;4.97;;;3.40;99.90;;;;;;5057536;28;20211;-85
2022/10/10 02:56:52;;;;;;;9.83;5.33;;;3.30;99.90;;;;;;5057569;28;20274;-85
2022/10/10 02:59:17;;;;;;;11.33;5.87;;;3.30;99.90;;;;;;5056816;28;20226;-85
2022/10/10 03:01:43;;;;;;;12.83;5.37;;;3.30;99.90;;;;;;5057017;28;20201;-85
2022/10/10 03:04:10;;;;;;;10.10;5.67;;;3.30;99.90;;;;;;5056751;28;20647;-85
2022/10/10 03:06:36;;;;;;;12.27;6.07;;;3.30;99.90;;;;;;5040611;28;20182;-85
2022/10/10 03:09:03;;;;;;;6.93;5.00;;;3.30;99.90;;;;;;5074108;28;20577;-85
2022/10/10 03:11:29;;;;;;;9.57;5.20;;;3.20;99.90;;;;;;5040551;28;20192;-85
2022/10/10 03:13:54;;;;;;;13.00;4.73;;;3.30;99.90;;;;;;5056827;28;20183;-84
2022/10/10 03:16:20;;;;;;;15.23;5.63;;;3.20;99.90;;;;;;5040150;28;20182;-85
2022/10/10 03:18:45;;;;;;;6.83;4.70;;;3.10;99.90;;;;;;5040247;28;20631;-84
2022/10/10 03:21:11;;;;;;;7.50;5.03;;;3.10;99.90;;;;;;5039917;28;20703;-85
2022/10/10 03:23:37;;;;;;;10.67;5.93;;;3.00;99.90;;;;;;5074518;28;20461;-84
2022/10/10 03:26:04;;;;;;;9.63;6.13;;;3.10;99.90;;;;;;5056514;28;20627;-87
2022/10/10 03:28:29;;;;;;;6.07;4.30;;;3.00;99.90;;;;;;5056412;28;20207;-84
2022/10/10 03:30:55;;;;;;;9.70;5.70;;;3.00;99.90;;;;;;5056428;28;20194;-84
2022/10/10 03:33:21;;;;;;;8.10;4.83;;;3.00;99.90;;;;;;5023097;28;20210;-84
2022/10/10 03:35:47;;;;;;;17.57;6.73;;;3.00;99.90;;;;;;5074534;28;20620;-84
2022/10/10 03:38:13;;;;;;;12.70;5.70;;;2.90;99.90;;;;;;5073950;28;20183;-83
2022/10/10 03:40:41;;;;;;;6.27;4.60;;;3.00;99.90;;;;;;5074477;28;20186;-83
2022/10/10 03:43:08;;;;;;;17.50;7.03;;;3.00;99.90;;;;;;5075921;28;20258;-88
2022/10/10 03:45:33;;;;;;;11.20;6.13;;;3.00;99.90;;;;;;5057465;28;21262;-84
2022/10/10 03:47:59;;;;;;;14.07;7.27;;;3.00;99.90;;;;;;5075340;28;20250;-84
2022/10/10 03:50:25;;;;;;;13.20;6.83;;;3.00;99.90;;;;;;5074115;28;20179;-84
2022/10/10 03:52:50;;;;;;;11.43;5.97;;;3.00;99.90;;;;;;5056440;28;20260;-84
2022/10/10 03:55:16;;;;;;;10.10;5.93;;;3.00;99.90;;;;;;5040140;28;20654;-84
2022/10/10 03:57:42;;;;;;;8.87;4.60;;;2.90;99.90;;;;;;5074244;28;20186;-84
2022/10/10 04:00:09;;;;;;;7.33;5.10;;;2.90;99.90;;;;;;5073793;28;20534;-86
2022/10/10 04:02:35;;;;;;;8.63;6.03;;;2.90;99.90;;;;;;5074177;28;20194;-86
2022/10/10 04:05:02;;;;;;;12.37;5.97;;;;;;;;;;5040279;28;20186;-85
2022/10/10 04:07:29;;;;;;;10.30;5.70;;;2.90;99.90;;;;;;5073361;28;20201;-85
2022/10/10 04:09:55;;;;;;;12.53;5.33;;;2.80;99.90;;;;;;5039386;28;20183;-83
2022/10/10 04:12:21;;;;;;;10.67;5.60;;;2.80;99.90;;;;;;5073527;28;20262;-83
2022/10/10 04:14:47;;;;;;;11.87;6.27;;;2.80;99.90;;;;;;5073335;28;20177;-83
2022/10/10 04:17:12;;;;;;;15.90;5.40;;;2.70;99.90;;;;;;5055401;28;20522;-83
2022/10/10 04:19:38;;;;;;;10.13;5.83;;;2.70;99.90;;;;;;5073583;28;20179;-85
2022/10/10 04:22:04;;;;;;;8.63;5.10;;;2.70;99.90;;;;;;5073224;28;20219;-84
2022/10/10 04:24:29;;;;;;;12.70;7.03;;;2.70;99.90;;;;;;5038637;28;20362;-84
2022/10/10 04:26:55;;;;;;;10.47;6.93;;;2.80;99.90;;;;;;5072949;28;20252;-85
2022/10/10 04:29:21;;;;;;;12.63;6.13;;;2.70;99.90;;;;;;5073141;28;20226;-85
2022/10/10 04:31:47;;;;;;;18.73;7.83;;;2.70;99.90;;;;;;5055308;28;20213;-85
2022/10/10 04:34:13;;;;;;;12.50;6.13;;;2.70;99.90;;;;;;5053871;28;20187;-82
2022/10/10 04:36:39;;;;;;;8.13;4.87;;;2.70;99.90;;;;;;5055297;28;20176;-82
2022/10/10 04:39:05;;;;;;;14.87;4.90;;;2.60;99.90;;;;;;5054966;28;20194;-83
2022/10/10 04:41:31;;;;;;;12.70;5.90;;;2.70;99.90;;;;;;5055258;28;20172;-83
2022/10/10 04:43:58;;;;;;;9.60;5.23;;;2.70;99.90;;;;;;5055073;28;20628;-83
2022/10/10 04:46:23;;;;;;;19.97;7.37;;;2.60;99.90;;;;;;5055093;28;20240;-82
2022/10/10 04:48:49;;;;;;;19.40;8.93;;;2.70;99.90;;;;;;5072617;28;20724;-84
2022/10/10 04:51:15;;;;;;;20.60;10.77;;;2.60;99.90;;;;;;5072596;28;20189;-82
2022/10/10 04:53:40;;;;;;;23.13;11.00;;;2.60;99.90;;;;;;5072823;28;20209;-82
2022/10/10 04:56:06;;;;;;;26.30;12.77;;;2.60;99.90;;;;;;5054906;28;20178;-85
2022/10/10 04:58:32;;;;;;;28.77;14.87;;;2.50;99.90;;;;;;5072367;28;20182;-85
2022/10/10 05:00:57;;;;;;;18.67;10.00;;;2.60;99.90;;;;;;5054030;28;20175;-85
2022/10/10 05:03:24;;;;;;;22.13;10.43;;;2.60;99.90;;;;;;5072917;28;20180;-85
2022/10/10 05:05:51;;;;;;;14.97;8.37;;;2.60;99.90;;;;;;5054667;28;20205;-85
2022/10/10 05:08:18;;;;;;;23.63;8.40;;;2.60;99.90;;;;;;5054659;28;20202;-84
2022/10/10 05:10:45;;;;;;;25.37;10.10;;;2.70;99.90;;;;;;5071493;28;20234;-85
2022/10/10 05:13:13;;;;;;;19.03;9.87;;;2.70;99.90;;;;;;5088754;28;20184;-84
2022/10/10 05:15:40;;;;;;;21.80;9.33;;;2.70;99.90;;;;;;5055368;28;20358;-84
2022/10/10 05:18:06;;;;;;;20.43;9.47;;;2.70;99.90;;;;;;5054868;28;20192;-84
2022/10/10 05:20:33;;;;;;;25.13;9.57;;;2.80;99.90;;;;;;5088355;28;20175;-84
2022/10/10 05:22:59;;;;;;;31.10;14.37;;;2.90;99.90;;;;;;5048578;28;20242;-85
2022/10/10 05:25:25;;;;;;;16.40;9.13;;;3.00;99.90;;;;;;5028100;28;20171;-85
2022/10/10 05:27:51;;;;;;;26.43;9.73;;;3.00;99.90;;;;;;5044601;28;20284;-84
2022/10/10 05:30:17;;;;;;;17.13;6.07;;;3.00;99.90;;;;;;5026812;28;20286;-87
2022/10/10 05:32:43;;;;;;;17.40;7.63;;;3.10;99.90;;;;;;5045330;28;20181;-84
2022/10/10 05:35:08;;;;;;;20.87;11.07;;;3.10;99.90;;;;;;5018145;28;20189;-84
2022/10/10 05:37:34;;;;;;;29.23;14.07;;;3.20;99.90;;;;;;5017904;28;20186;-84
2022/10/10 05:40:00;;;;;;;31.47;13.07;;;3.30;99.90;;;;;;5040418;28;20190;-85
2022/10/10 05:42:26;;;;;;;25.43;10.77;;;3.40;99.90;;;;;;5054061;28;20297;-85
2022/10/10 05:44:52;;;;;;;19.40;7.67;;;3.50;99.90;;;;;;5044028;28;20227;-84
2022/10/10 05:47:17;;;;;;;16.97;8.67;;;3.50;99.90;;;;;;5041746;28;20215;-85
2022/10/10 05:49:43;;;;;;;26.67;9.57;;;3.60;99.90;;;;;;5028317;28;20228;-85
2022/10/10 05:52:09;;;;;;;17.83;10.70;;;3.70;99.90;;;;;;5061032;28;20225;-85
2022/10/10 05:54:35;;;;;;;31.83;15.53;;;3.70;99.90;;;;;;5041372;28;20705;-85
2022/10/10 05:57:00;;;;;;;22.37;10.07;;;3.80;99.90;;;;;;5059499;28;20179;-85
2022/10/10 05:59:28;;;;;;;20.47;8.40;;;3.90;99.90;;;;;;5061362;28;20195;-85
2022/10/10 06:01:54;;;;;;;19.40;8.20;;;4.00;99.90;;;;;;5059849;28;20167;-85
2022/10/10 06:04:22;;;;;;;16.67;8.60;;;4.00;99.90;;;;;;5052302;28;20277;-85
2022/10/10 06:06:48;;;;;;;26.47;9.77;;;4.10;99.90;;;;;;5058663;28;20189;-84
2022/10/10 06:09:13;;;;;;;30.07;11.00;;;4.20;99.90;;;;;;5042413;28;20219;-85
2022/10/10 06:11:39;;;;;;;24.17;9.10;;;4.30;99.90;;;;;;5041165;28;20516;-85
2022/10/10 06:14:05;;;;;;;15.53;8.13;;;4.40;99.90;;;;;;5046739;28;20596;-86
2022/10/10 06:16:31;;;;;;;16.67;8.60;;;4.40;99.90;;;;;;5065717;28;20186;-87
2022/10/10 06:18:57;;;;;;;18.00;7.50;;;4.50;99.90;;;;;;5045959;28;20189;-87
2022/10/10 06:21:23;;;;;;;14.90;8.37;;;4.60;99.90;;;;;;5045287;28;20187;-87
2022/10/10 06:23:48;;;;;;;15.07;7.40;;;4.70;99.90;;;;;;5052955;28;20183;-86
2022/10/10 06:26:14;;;;;;;12.13;7.17;;;4.90;99.90;;;;;;5039147;28;20706;-85
2022/10/10 06:28:40;;;;;;;9.53;5.07;;;5.00;99.90;;;;;;5042424;28;20204;-85
2022/10/10 06:31:09;;;;;;;13.03;6.00;;;5.10;99.90;;;;;;5045430;28;20226;-87
2022/10/10 06:33:36;;;;;;;14.60;5.77;;;5.20;99.90;;;;;;5061403;28;20240;-86
2022/10/10 06:36:06;;;;;;;9.50;5.60;;;5.30;99.90;;;;;;5022996;28;20229;-85
2022/10/10 06:38:36;;;;;;;14.43;8.43;;;5.40;99.90;;;;;;5047044;28;20191;-86
2022/10/10 06:41:03;;;;;;;20.07;8.13;;;5.60;99.90;;;;;;5057243;28;20197;-86
2022/10/10 06:43:30;;;;;;;18.67;8.63;;;5.70;99.90;;;;;;5056936;28;20179;-85
2022/10/10 06:45:56;;;;;;;27.67;11.30;;;5.90;99.90;;;;;;5075158;28;20226;-85
2022/10/10 06:48:22;;;;;;;22.40;7.73;;;6.00;99.90;;;;;;5057576;28;20239;-86
2022/10/10 06:50:58;;;;;;;17.50;7.87;;;6.20;99.90;;;;;;5057053;28;20287;-84
2022/10/10 06:53:24;;;;;;;15.27;7.17;;;6.30;99.90;;;;;;5075389;28;20190;-85
2022/10/10 06:55:49;;;;;;;15.57;7.17;;;6.40;99.90;;;;;;5057271;28;20187;-84
2022/10/10 06:58:15;;;;;;;18.67;8.00;;;6.50;99.90;;;;;;5057568;28;20214;-84
2022/10/10 07:00:40;;;;;;;20.27;9.23;;;6.70;99.90;;;;;;5074996;28;20267;-85
2022/10/10 07:03:10;;;;;;;22.83;10.10;;;6.80;99.90;;;;;;5040555;28;20240;-85
2022/10/10 07:05:35;;;;;;;18.50;8.50;;;7.00;99.90;;;;;;5040586;28;20183;-85
2022/10/10 07:08:01;;;;;;;15.40;6.50;;;7.00;99.90;;;;;;5075126;28;20207;-85
2022/10/10 07:10:26;;;;;;;16.07;7.37;;;7.20;99.90;;;;;;5040421;28;20191;-90
2022/10/10 07:12:52;;;;;;;16.17;8.07;;;7.40;99.90;;;;;;5040827;28;20183;-84
2022/10/10 07:15:18;;;;;;;10.53;6.47;;;7.50;99.90;;;;;;5040407;28;20179;-85
2022/10/10 07:17:43;;;;;;;16.00;7.10;;;7.60;99.90;;;;;;5040130;28;20190;-85
2022/10/10 07:20:09;;;;;;;17.20;6.23;;;7.70;99.90;;;;;;5074661;28;20183;-85
2022/10/10 07:22:35;;;;;;;23.07;7.90;;;9.00;99.90;;;;;;5044074;28;20192;-86
2022/10/10 07:25:00;;;;;;;19.80;7.67;;;8.00;99.90;;;;;;5044269;28;20180;-86
2022/10/10 07:27:26;;;;;;;19.57;7.83;;;8.20;99.90;;;;;;5037060;28;20243;-86
2022/10/10 07:29:52;;;;;;;19.00;6.07;;;8.30;99.90;;;;;;5020371;28;20192;-85
2022/10/10 07:32:18;;;;;;;12.47;6.30;;;;;;;;;;5037183;28;20180;-86
2022/10/10 07:34:44;;;;;;;14.93;7.57;;;;;;;;;;5036847;28;20175;-86
2022/10/10 07:37:10;;;;;;;11.77;5.10;;;;;;;;;;5054759;28;20648;-86
2022/10/10 07:39:38;;;;;;;8.90;4.80;;;9.10;99.90;;;;;;5036620;28;20184;-86
2022/10/10 07:42:03;;;;;;;10.57;4.53;;;9.30;99.90;;;;;;5037099;28;20180;-87
2022/10/10 07:44:29;;;;;;;7.67;3.97;;;9.50;99.90;;;;;;5020169;28;20283;-86
2022/10/10 07:46:54;;;;;;;8.33;4.40;;;9.60;99.90;;;;;;5036105;28;20253;-87
2022/10/10 07:49:20;;;;;;;16.67;4.70;;;9.80;99.90;;;;;;5036508;28;20269;-86
2022/10/10 07:51:46;;;;;;;6.50;4.13;;;10.00;99.90;;;;;;5019798;28;20651;-86
2022/10/10 07:54:11;;;;;;;10.17;4.70;;;10.10;99.90;;;;;;5019681;28;20535;-85
2022/10/10 07:56:37;;;;;;;6.97;4.13;;;10.20;99.90;;;;;;5036197;28;20180;-86
2022/10/10 07:59:03;;;;;;;7.43;3.47;;;10.30;99.90;;;;;;5036166;28;20190;-87
2022/10/10 08:01:28;;;;;;;7.43;3.67;;;10.40;99.90;;;;;;5019719;28;20180;-86
2022/10/10 08:03:55;;;;;;;7.23;3.23;;;10.40;99.90;;;;;;5038999;28;20179;-87
2022/10/10 08:06:21;;;;;;;6.73;3.40;;;10.60;99.90;;;;;;5040035;28;20183;-86
2022/10/10 08:08:48;;;;;;;6.67;3.80;;;10.70;99.90;;;;;;5056244;28;20301;-86
2022/10/10 08:11:14;;;;;;;6.83;3.20;;;10.80;99.90;;;;;;5055894;28;20202;-86
2022/10/10 08:13:41;;;;;;;6.93;3.90;;;10.90;99.90;;;;;;5055667;28;20187;-86
2022/10/10 08:16:07;;;;;;;6.05;3.60;;;11.00;99.90;;;;;;5040142;28;20627;-87
2022/10/10 08:18:33;;;;;;;8.30;3.77;;;11.10;99.90;;;;;;5056350;28;20183;-87
2022/10/10 08:21:05;;;;;;;4.45;2.83;;;11.20;99.90;;;;;;5055892;28;20187;-88
2022/10/10 08:23:31;;;;;;;5.43;2.70;;;11.20;99.90;;;;;;5056182;28;20202;-88
2022/10/10 08:25:58;;;;;;;3.77;2.60;;;11.30;99.90;;;;;;5039599;28;20179;-88
2022/10/10 08:28:27;;;;;;;4.03;2.47;;;11.00;99.90;;;;;;5055249;28;20214;-88
2022/10/10 08:30:55;;;;;;;4.45;2.78;;;11.20;99.90;;;;;;5055499;28;20202;-88
2022/10/10 08:33:21;;;;;;;3.30;2.20;;;11.20;99.90;;;;;;5039040;28;20183;-88
2022/10/10 08:35:52;;;;;;;3.42;2.45;;;11.30;99.90;;;;;;5039336;28;20568;-87
2022/10/10 08:38:23;;;;;;;3.95;2.03;;;11.50;99.90;;;;;;5073618;28;20159;-88
2022/10/10 08:40:51;;;;;;;5.03;2.55;;;11.90;99.90;;;;;;5055680;28;20203;-88
2022/10/10 08:43:26;;;;;;;5.75;2.90;;;12.10;99.90;;;;;;5061675;28;20191;-86
2022/10/10 08:45:53;;;;;;;4.63;2.80;;;11.70;99.90;;;;;;5064657;28;20230;-85
2022/10/10 08:48:24;;;;;;;3.33;2.65;;;11.70;99.90;;;;;;5049380;28;20599;-87
2022/10/10 08:51:02;;;;;;;3.35;2.30;;;11.80;99.90;;;;;;5053819;28;20160;-87
2022/10/10 08:53:39;;;;;;;3.67;1.77;;;12.00;99.90;;;;;;5053519;28;20190;-89
2022/10/10 08:56:07;;;;;;;3.78;1.80;;;12.00;99.90;;;;;;5052891;28;20183;-88
2022/10/10 08:58:37;;;;;;;2.55;1.63;;;12.10;99.90;;;;;;5052150;28;20781;-89
2022/10/10 09:01:20;;;;;;;1.90;1.80;;;12.10;99.90;;;;;;5053445;28;20176;-88
2022/10/10 09:03:47;;;;;;;2.70;1.70;;;12.20;99.90;;;;;;5052320;28;20621;-87
2022/10/10 09:06:54;;;;;;;7.68;1.80;;;12.30;99.90;;;;;;5052163;28;20183;-88
2022/10/10 09:09:26;;;;;;;5.35;2.13;;;12.40;99.90;;;;;;5053215;28;20196;-87
2022/10/10 09:12:21;;;;;;;3.03;1.80;;;12.40;99.90;;;;;;5051756;28;20286;-86
2022/10/10 09:15:19;;;;;;;1.33;1.15;;;12.40;99.90;;;;;;5052613;28;20253;-87
2022/10/10 09:17:49;;;;;;;1.65;1.40;;;12.60;99.90;;;;;;5052127;28;20184;-87
2022/10/10 09:20:30;;;;;;;2.42;1.50;;;12.70;99.90;;;;;;5052464;28;20184;-86
2022/10/10 09:23:24;;;;;;;2.03;1.35;;;12.80;99.90;;;;;;5052071;28;20613;-87
2022/10/10 09:26:01;;;;;;;1.70;1.42;;;12.90;99.90;;;;;;5053546;28;20179;-85
2022/10/10 09:28:54;;;;;;;1.77;1.17;;;13.00;99.90;;;;;;5051579;28;20211;-86
2022/10/10 09:31:30;;;;;;;1.80;1.50;;;13.10;99.90;;;;;;5053392;28;20196;-86
2022/10/10 09:34:02;;;;;;;2.97;1.92;;;13.20;99.90;;;;;;5051725;28;20769;-86
2022/10/10 09:36:34;;;;;;;2.13;1.52;;;13.20;99.90;;;;;;5052079;28;20172;-87
2022/10/10 09:39:05;;;;;;;2.40;1.65;;;13.10;99.90;;;;;;5053450;28;20175;-87
2022/10/10 09:41:39;;;;;;;1.75;1.10;;;13.20;99.90;;;;;;5053587;28;20186;-87
2022/10/10 09:44:11;;;;;;;3.05;1.17;;;13.20;99.90;;;;;;5052250;28;20216;-88
2022/10/10 09:46:37;;;;;;;1.50;0.90;;;13.00;99.90;;;;;;5052002;28;20231;-87
2022/10/10 09:49:03;;;;;;;2.05;1.50;;;13.10;99.90;;;;;;5056444;28;20552;-86
2022/10/10 09:51:31;;;;;;;3.00;1.30;;;13.20;99.90;;;;;;5055797;28;20184;-87
2022/10/10 09:53:57;;;;;;;1.02;0.90;;;13.40;99.90;;;;;;5056152;28;20176;-86
2022/10/10 09:56:26;;;;;;;2.65;1.10;;;13.60;99.90;;;;;;5055898;28;20176;-87
2022/10/10 09:58:53;;;;;;;1.38;0.93;;;13.80;99.90;;;;;;5056886;28;20176;-88
2022/10/10 10:01:22;;;;;;;0.98;0.98;;;14.10;99.90;;;;;;5055713;28;20176;-85
2022/10/10 10:04:14;;;;;;;2.58;1.20;;;14.20;99.90;;;;;;5056264;28;20180;-88
2022/10/10 10:06:46;;;;;;;2.38;1.02;;;14.20;99.90;;;;;;5036997;28;20633;-85
2022/10/10 10:09:18;;;;;;;2.83;2.00;;;14.30;99.90;;;;;;5035870;28;20199;-86
2022/10/10 10:11:46;;;;;;;1.63;1.30;;;14.40;99.90;;;;;;5036531;28;20192;-88
2022/10/10 10:14:22;;;;;;;2.83;1.45;;;14.40;99.90;;;;;;5044583;28;20667;-87
2022/10/10 10:16:48;;;;;;;1.83;1.23;;;14.40;99.90;;;;;;5057137;28;20186;-88
2022/10/10 10:19:41;;;;;;;1.55;1.45;;;14.60;99.90;;;;;;5057483;28;20180;-88
2022/10/10 10:22:30;;;;;;;6.97;1.65;;;14.60;99.90;;;;;;5053940;28;20196;-86
2022/10/10 10:24:56;;;;;;;0.82;0.82;;;14.50;99.90;;;;;;5057908;28;20172;-87
2022/10/10 10:27:24;;;;;;;1.10;0.82;;;14.60;99.90;;;;;;5055573;28;20210;-91
2022/10/10 10:29:53;;;;;;;1.65;1.55;;;14.60;99.90;;;;;;5055049;28;20270;-91
2022/10/10 10:32:31;;;;;;;0.88;0.85;;;14.80;99.90;;;;;;5055700;28;20687;-88
2022/10/10 10:35:24;;;;;;;2.28;1.00;;;14.90;99.90;;;;;;5056210;28;20168;-88
2022/10/10 10:38:25;;;;;;;6.55;1.20;;;15.10;99.90;;;;;;5056065;28;20267;-88
2022/10/10 10:41:08;;;;;;;2.03;1.08;;;15.20;99.90;;;;;;5056076;28;20193;-91
2022/10/10 10:43:51;;;;;;;1.70;1.10;;;15.10;99.90;;;;;;5054868;28;20183;-88
2022/10/10 10:46:31;;;;;;;1.17;0.90;;;15.20;99.90;;;;;;5054188;28;20223;-87
2022/10/10 10:49:03;;;;;;;0.70;0.70;;;15.20;99.90;;;;;;5055880;28;20223;-87
2022/10/10 10:51:57;;;;;;;1.42;0.90;;;15.20;99.90;;;;;;5054809;28;20219;-88
2022/10/10 10:54:41;;;;;;;1.08;0.90;;;15.20;99.90;;;;;;5054353;28;20183;-86
2022/10/10 10:57:38;;;;;;;1.10;0.98;;;15.00;99.90;;;;;;5054695;28;20660;-87
2022/10/10 11:00:18;;;;;;;0.88;0.88;;;15.10;99.90;;;;;;5053224;28;20182;-88
2022/10/10 11:02:46;;;;;;;1.92;1.00;;;15.00;99.90;;;;;;5056169;28;20199;-88
2022/10/10 11:05:32;;;;;;;1.10;0.90;;;15.00;99.90;;;;;;5054136;28;20258;-87
2022/10/10 11:08:23;;;;;;;1.75;0.98;;;15.00;99.90;;;;;;5055429;28;20207;-89
2022/10/10 11:11:04;;;;;;;1.73;0.90;;;14.90;99.90;;;;;;5055680;28;20686;-88
2022/10/10 11:14:01;;;;;;;1.05;0.90;;;15.10;99.90;;;;;;5055147;28;20183;-88
2022/10/10 11:17:02;;;;;;;2.05;1.00;;;14.90;99.90;;;;;;5054396;28;20215;-88
2022/10/10 11:19:33;;;;;;;1.40;1.30;;;14.90;99.90;;;;;;5053347;28;20187;-88
2022/10/10 11:22:10;;;;;;;1.95;1.35;;;14.80;99.90;;;;;;5055485;28;20247;-88
2022/10/10 11:24:50;;;;;;;2.53;1.55;;;14.70;99.90;;;;;;5055096;28;20178;-86
2022/10/10 11:27:31;;;;;;;1.95;1.50;;;14.60;99.90;;;;;;5053838;28;20175;-87
2022/10/10 11:30:13;;;;;;;3.60;1.60;;;14.60;99.90;;;;;;5054669;28;20180;-87
2022/10/10 11:32:55;;;;;;;5.60;2.30;;;14.60;99.90;;;;;;5055087;28;20187;-88
2022/10/10 11:35:29;;;;;;;2.80;1.75;;;14.70;99.90;;;;;;5055175;28;20156;-88
2022/10/10 11:38:30;;;;;;;2.10;1.65;;;14.60;99.90;;;;;;5053694;28;20260;-88
2022/10/10 11:41:02;;;;;;;1.63;1.45;;;14.60;99.90;;;;;;5055914;28;20172;-88
2022/10/10 11:43:41;;;;;;;1.52;1.42;;;14.70;99.90;;;;;;5056396;28;20176;-88
2022/10/10 11:46:30;;;;;;;3.00;1.98;;;14.80;99.90;;;;;;5053639;28;20272;-87
2022/10/10 11:49:11;;;;;;;4.82;2.10;;;14.70;99.90;;;;;;5027227;28;20581;-88
2022/10/10 11:52:13;;;;;;;1.40;1.30;;;14.70;99.90;;;;;;5054109;28;20210;-89
2022/10/10 11:55:00;;;;;;;4.03;1.63;;;14.80;99.90;;;;;;5054175;28;20215;-87
2022/10/10 11:57:41;;;;;;;3.28;1.85;;;14.00;99.90;;;;;;5055084;28;20183;-87
2022/10/10 12:00:27;;;;;;;3.00;1.52;;;14.90;99.90;;;;;;5054307;28;20175;-88
2022/10/10 12:02:56;;;;;;;3.45;1.55;;;14.90;99.90;;;;;;5051973;28;20188;-88
2022/10/10 12:05:28;;;;;;;2.95;1.95;;;15.10;99.90;;;;;;5037086;28;20263;-87
2022/10/10 12:07:56;;;;;;;3.97;2.17;;;15.30;99.90;;;;;;5053524;28;20299;-87
2022/10/10 12:10:25;;;;;;;4.63;2.10;;;15.40;99.90;;;;;;5052947;28;20608;-87
2022/10/10 12:12:54;;;;;;;1.52;1.30;;;15.40;99.90;;;;;;5054491;28;20175;-89
2022/10/10 12:15:33;;;;;;;2.40;1.63;;;15.50;99.90;;;;;;5054288;28;20187;-88
2022/10/10 12:17:59;;;;;;;2.13;1.92;;;15.50;99.90;;;;;;5054653;28;20221;-88
2022/10/10 12:20:25;;;;;;;4.10;2.25;;;15.40;99.90;;;;;;5052908;28;20182;-89
2022/10/10 12:23:14;;;;;;;4.03;1.95;;;15.50;99.90;;;;;;5054646;28;20156;-88
2022/10/10 12:29:08;;;;;;;1.98;1.55;;;15.50;99.90;;;;;;5054170;28;20237;-88
2022/10/10 12:31:38;;;;;;;1.70;1.42;;;15.70;99.90;;;;;;5052254;28;20233;-87
2022/10/10 12:34:11;;;;;;;3.60;1.50;;;15.90;99.90;;;;;;5034281;28;20191;-88
2022/10/10 12:36:41;;;;;;;3.88;1.85;;;16.30;99.90;;;;;;5045730;28;20636;-87
2022/10/10 12:39:10;;;;;;;1.20;1.05;;;17.00;99.90;;;;;;5052903;28;20183;-88
2022/10/10 12:41:41;;;;;;;2.35;1.17;;;17.60;99.90;;;;;;5052824;28;20188;-88
2022/10/10 12:44:24;;;;;;;3.00;1.10;;;17.70;96.50;;;;;;5033320;28;20184;-89
2022/10/10 12:47:15;;;;;;;4.45;1.20;;;17.50;93.90;;;;;;5033339;28;20706;-88
2022/10/10 12:50:19;;;;;;;1.80;1.20;;;17.20;94.70;;;;;;5031234;28;20188;-88
2022/10/10 12:52:49;;;;;;;4.00;1.80;;;17.20;95.70;;;;;;5020926;28;20187;-87
2022/10/10 12:55:20;;;;;;;1.63;1.10;;;17.30;95.40;;;;;;5036281;28;20180;-88
2022/10/10 12:57:48;;;;;;;1.50;1.20;;;17.70;94.10;;;;;;5033947;28;20231;-88
2022/10/10 13:00:14;;;;;;;6.63;1.30;;;18.20;93.50;;;;;;5018622;28;20174;-88
2022/10/10 13:02:44;;;;;;;1.67;1.13;;;18.70;91.70;;;;;;5013707;28;20208;-88
2022/10/10 13:05:13;;;;;;;1.33;1.08;;;19.20;88.90;;;;;;5021921;28;20172;-88
2022/10/10 13:07:38;;;;;;;1.40;1.05;;;19.60;84.40;;;;;;5036355;28;20204;-88
2022/10/10 13:10:20;;;;;;;1.13;1.00;;;19.60;85.50;;;;;;5038444;28;20187;-89
2022/10/10 13:13:16;;;;;;;3.13;1.80;;;20.00;81.30;;;;;;5036995;28;20177;-88